Terminal Aerodrome Forecast
Issued by NWS Wakefield, VA

Home | Current Version | Previous Version | Text Only | Print | Product List | Glossary On
Versions: 1 2 3 4 5 6 7 8 9 10 11 12 13 14 15
000
FTUS41 KAKQ 191700 RRA
TAFSBY
TAF
KSBY 191741Z 1918/2018 06010G15KT P6SM SCT020 BKN035 BKN080
      TEMPO 1920/1923 -RA BKN020
     FM192300 10004KT P6SM SCT030 BKN070
     FM200400 09004KT 3SM BR FEW015 BKN100
     FM201000 10003KT 5SM BR BKN015=

USA.gov is the U.S. government's official web portal to all federal, state and local government web resources and services.